Adair Village, Oregon
Current Conditions -  °F | °C
As of 1:15 PM on Sunday 21 Dec 2014 (Local Time) from KCVO Reporting Station
Overcast Overcast  
Wind Chill: 55°   Ceiling: 4700
Heat Index: 55°   Visibility: 10mi
Dew Point: 48°   Wind: 6mph
Humidity: 77%   Direction: 260°W
Pressure: 30.14"   Gusts: NA
Location:  44.6364°N, 123.28°W
Report Text: KCVO 212115Z AUTO 26005KT 10SM SCT025 SCT032 OVC047 13/09 A3014 RMK AO1
Loading
Personal Weather Stations






























Interactive Weather Map New forecast layout! Learn more

10-Day Weather Forecast

Advertisements
Track Severe Weather on mobile